Time;durP1;ratioP1;P1;durP2;ratioP2;P2;SDS_P1;SDS_P2;PMS_P1;PMS_P2;Temp;Humidity;BMP_temperature;BMP_pressure;BME280_temperature;BME280_humidity;BME280_pressure;Samples;Min_cycle;Max_cycle;Signal;HPM_P1;HPM_P2
2021/08/30 00:00:38;;;;;;;1.60;1.00;;;16.50;98.20;;;;;;4993387;28;20468;-78
2021/08/30 00:03:05;;;;;;;1.60;0.90;;;16.50;98.20;;;;;;5008897;28;20483;-77
2021/08/30 00:05:31;;;;;;;1.60;1.00;;;16.60;98.20;;;;;;5004594;28;20464;-79
2021/08/30 00:07:58;;;;;;;1.60;1.00;;;16.60;98.20;;;;;;4994227;28;20511;-80
2021/08/30 00:10:26;;;;;;;1.57;0.90;;;16.60;98.20;;;;;;4995524;28;20461;-79
2021/08/30 00:12:53;;;;;;;1.80;1.37;;;16.60;98.20;;;;;;4995586;28;20492;-79
2021/08/30 00:15:21;;;;;;;1.60;1.00;;;16.60;98.20;;;;;;4991687;28;20461;-79
2021/08/30 00:17:49;;;;;;;1.60;1.00;;;16.60;98.20;;;;;;4978909;28;20473;-79
2021/08/30 00:20:18;;;;;;;1.60;0.90;;;16.60;98.20;;;;;;4995700;28;20886;-79
2021/08/30 00:22:46;;;;;;;1.60;1.00;;;16.60;98.20;;;;;;4994186;28;20484;-79
2021/08/30 00:25:13;;;;;;;1.60;1.00;;;16.70;98.20;;;;;;5001344;28;20475;-79
2021/08/30 00:27:40;;;;;;;1.60;1.00;;;16.70;98.20;;;;;;4977625;28;20481;-79
2021/08/30 00:30:09;;;;;;;1.60;1.00;;;16.70;98.20;;;;;;4992563;28;21164;-79
2021/08/30 00:32:37;;;;;;;1.57;1.00;;;16.70;98.20;;;;;;4997705;28;20511;-79
2021/08/30 00:35:05;;;;;;;1.60;1.10;;;16.70;98.20;;;;;;4989903;28;20473;-79
2021/08/30 00:37:31;;;;;;;1.53;1.00;;;16.70;98.20;;;;;;4995370;28;20855;-78
2021/08/30 00:39:59;;;;;;;1.60;1.00;;;16.70;98.20;;;;;;5002948;28;20474;-79
2021/08/30 00:42:26;;;;;;;1.60;1.00;;;16.70;98.20;;;;;;5003148;28;20487;-79
2021/08/30 00:44:53;;;;;;;1.60;1.00;;;16.70;98.20;;;;;;4999642;28;20464;-78
2021/08/30 00:47:22;;;;;;;1.60;1.00;;;16.70;98.20;;;;;;4994308;28;20488;-79
2021/08/30 00:49:50;;;;;;;1.60;1.00;;;16.70;98.20;;;;;;4997071;28;20463;-79
2021/08/30 00:52:17;;;;;;;1.60;1.00;;;16.70;98.20;;;;;;5005792;28;20488;-78
2021/08/30 00:54:44;;;;;;;1.50;0.90;;;16.70;98.20;;;;;;4993543;28;21032;-79
2021/08/30 00:57:11;;;;;;;1.60;0.90;;;16.70;98.20;;;;;;4985602;28;20535;-78
2021/08/30 00:59:41;;;;;;;1.57;0.90;;;16.70;98.20;;;;;;4996839;28;20857;-78
2021/08/30 01:02:08;;;;;;;1.60;1.00;;;16.70;98.20;;;;;;4986681;28;20557;-79
2021/08/30 01:04:35;;;;;;;1.60;1.20;;;16.70;98.20;;;;;;5000023;28;20463;-79
2021/08/30 01:07:08;;;;;;;1.60;0.97;;;16.70;98.20;;;;;;4994961;28;20476;-79
2021/08/30 01:09:41;;;;;;;1.57;1.00;;;16.70;98.20;;;;;;4983711;28;20469;-79
2021/08/30 01:12:11;;;;;;;1.60;1.00;;;16.70;98.20;;;;;;4978014;28;20491;-78
2021/08/30 01:14:49;;;;;;;1.60;1.00;;;16.70;98.20;;;;;;4994261;28;20469;-78
2021/08/30 01:17:18;;;;;;;1.60;1.10;;;16.70;98.20;;;;;;4990172;28;20874;-79
2021/08/30 01:19:49;;;;;;;1.60;1.00;;;16.70;98.20;;;;;;4998209;28;20465;-80
2021/08/30 01:22:20;;;;;;;1.60;1.00;;;16.70;98.20;;;;;;5005143;28;20566;-79
2021/08/30 01:24:48;;;;;;;1.70;1.20;;;16.70;98.20;;;;;;4998792;28;20460;-79
2021/08/30 01:27:17;;;;;;;1.50;0.97;;;16.70;98.20;;;;;;4987178;28;20478;-79
2021/08/30 01:29:53;;;;;;;1.50;0.90;;;16.70;98.20;;;;;;4998225;28;20463;-78
2021/08/30 01:32:32;;;;;;;1.60;1.00;;;16.70;98.20;;;;;;5001988;28;20486;-79
2021/08/30 01:35:01;;;;;;;2.00;1.70;;;16.70;98.20;;;;;;4997132;28;20457;-78
2021/08/30 01:37:30;;;;;;;1.60;1.10;;;16.70;98.20;;;;;;4991096;28;20468;-80
2021/08/30 01:39:59;;;;;;;1.67;1.37;;;16.70;98.20;;;;;;4996843;28;20461;-79
2021/08/30 01:42:26;;;;;;;1.60;1.00;;;16.70;98.20;;;;;;4992265;28;20492;-79
2021/08/30 01:44:54;;;;;;;2.77;1.77;;;16.70;98.20;;;;;;5001466;28;20467;-79
2021/08/30 01:47:22;;;;;;;1.57;1.00;;;16.70;98.20;;;;;;5001866;28;20480;-78
2021/08/30 01:50:00;;;;;;;1.60;1.10;;;16.70;98.20;;;;;;4998896;28;20465;-79
2021/08/30 01:52:27;;;;;;;1.60;1.00;;;16.70;98.20;;;;;;4989555;28;20575;-79
2021/08/30 01:54:56;;;;;;;1.53;1.00;;;16.70;98.20;;;;;;4993632;28;20471;-79
2021/08/30 01:57:24;;;;;;;1.60;1.00;;;16.70;98.20;;;;;;4993939;28;20502;-79
2021/08/30 02:02:36;;;;;;;1.60;1.00;;;16.70;98.20;;;;;;4953771;28;20567;-79
2021/08/30 02:05:04;;;;;;;1.60;1.00;;;16.70;98.20;;;;;;4994859;28;20471;-79
2021/08/30 02:07:31;;;;;;;1.60;1.00;;;16.70;98.20;;;;;;4990560;28;20986;-79
2021/08/30 02:10:00;;;;;;;1.60;1.00;;;16.70;98.20;;;;;;4996768;28;20463;-80
2021/08/30 02:12:26;;;;;;;1.60;1.00;;;16.70;98.20;;;;;;4986134;28;20476;-79
2021/08/30 02:14:53;;;;;;;1.57;0.90;;;16.70;98.20;;;;;;5002512;28;20851;-78
2021/08/30 02:17:33;;;;;;;1.60;1.00;;;16.70;98.20;;;;;;4990385;28;20491;-79
2021/08/30 02:20:09;;;;;;;1.60;1.00;;;16.70;98.20;;;;;;4990456;28;20503;-79
2021/08/30 02:22:42;;;;;;;1.60;0.93;;;16.70;98.20;;;;;;4994625;28;20487;-78
2021/08/30 02:25:14;;;;;;;1.60;1.00;;;16.60;98.20;;;;;;4989327;28;20453;-79
2021/08/30 02:27:45;;;;;;;1.60;1.00;;;16.70;98.20;;;;;;4998775;28;21082;-79
2021/08/30 02:30:18;;;;;;;1.60;1.00;;;16.60;98.20;;;;;;4992120;28;20468;-79
2021/08/30 02:32:46;;;;;;;1.53;1.00;;;16.60;98.20;;;;;;4978061;28;20480;-79
2021/08/30 02:35:19;;;;;;;1.50;1.00;;;16.60;98.20;;;;;;4990450;28;20891;-79
2021/08/30 02:37:47;;;;;;;1.60;1.00;;;16.60;98.20;;;;;;4991110;28;20492;-79
2021/08/30 02:40:16;;;;;;;1.60;0.90;;;16.60;98.20;;;;;;4993797;28;20461;-79
2021/08/30 02:42:43;;;;;;;1.60;1.07;;;16.60;98.20;;;;;;5003894;28;20549;-79
2021/08/30 02:45:11;;;;;;;1.60;1.00;;;16.60;98.20;;;;;;4999903;28;20456;-80
2021/08/30 02:47:39;;;;;;;1.60;1.00;;;16.60;98.20;;;;;;4991629;28;21049;-78
2021/08/30 02:50:08;;;;;;;1.60;1.10;;;16.60;98.20;;;;;;4999403;28;20523;-79
2021/08/30 02:52:38;;;;;;;1.60;1.00;;;16.60;98.20;;;;;;4992700;28;20490;-79
2021/08/30 02:55:06;;;;;;;1.60;1.00;;;16.60;98.20;;;;;;4997805;28;20964;-79
2021/08/30 02:57:34;;;;;;;1.60;1.00;;;16.60;98.20;;;;;;4987469;28;20490;-79
2021/08/30 03:00:01;;;;;;;1.60;1.00;;;16.60;98.20;;;;;;5006653;28;20555;-79
2021/08/30 03:02:29;;;;;;;1.60;1.00;;;16.60;98.20;;;;;;4999072;28;20488;-79
2021/08/30 03:04:57;;;;;;;1.60;1.10;;;16.60;98.20;;;;;;4977297;28;20548;-79
2021/08/30 03:07:26;;;;;;;1.60;1.00;;;16.60;98.20;;;;;;4997553;28;20918;-79
2021/08/30 03:09:55;;;;;;;1.57;1.00;;;16.60;98.20;;;;;;4993096;28;20469;-79
2021/08/30 03:12:23;;;;;;;1.60;1.00;;;16.60;98.20;;;;;;4993524;28;20963;-80
2021/08/30 03:14:50;;;;;;;1.57;0.90;;;16.60;98.20;;;;;;4999167;28;20483;-79
2021/08/30 03:17:19;;;;;;;1.90;1.70;;;16.60;98.20;;;;;;5002543;28;20952;-79
2021/08/30 03:19:48;;;;;;;1.60;1.00;;;16.60;98.20;;;;;;5003286;28;20456;-79
2021/08/30 03:22:17;;;;;;;1.50;1.00;;;16.60;98.20;;;;;;4994098;28;20478;-79
2021/08/30 03:24:45;;;;;;;1.60;1.00;;;16.60;98.20;;;;;;4993256;28;20966;-79
2021/08/30 03:27:16;;;;;;;2.00;1.80;;;16.60;98.20;;;;;;4999145;28;20483;-79
2021/08/30 03:29:44;;;;;;;1.60;1.03;;;16.60;98.20;;;;;;5003224;28;20536;-79
2021/08/30 03:32:13;;;;;;;1.60;1.00;;;16.50;98.20;;;;;;4992338;28;20499;-80
2021/08/30 03:34:40;;;;;;;1.60;1.07;;;16.50;98.20;;;;;;4998747;28;20850;-79
2021/08/30 03:37:09;;;;;;;1.60;1.00;;;16.50;98.20;;;;;;4998978;28;20490;-79
2021/08/30 03:39:36;;;;;;;1.57;1.00;;;16.50;98.20;;;;;;5002721;28;20888;-79
2021/08/30 03:42:04;;;;;;;1.60;1.00;;;16.50;98.20;;;;;;4999234;28;20480;-79
2021/08/30 03:44:35;;;;;;;1.60;1.03;;;16.50;98.20;;;;;;5008919;28;20870;-80
2021/08/30 03:47:02;;;;;;;1.60;1.10;;;16.50;98.20;;;;;;4997543;28;20490;-80
2021/08/30 03:49:29;;;;;;;1.60;1.00;;;16.40;98.20;;;;;;4997890;28;20556;-79
2021/08/30 03:51:58;;;;;;;1.60;1.00;;;16.40;98.20;;;;;;4994740;28;20480;-80
2021/08/30 03:54:25;;;;;;;1.60;0.97;;;16.40;98.20;;;;;;4994054;28;20456;-80
2021/08/30 03:56:53;;;;;;;1.60;1.20;;;16.40;98.20;;;;;;4987750;28;20586;-80
2021/08/30 03:59:21;;;;;;;1.60;1.00;;;16.40;98.20;;;;;;4998084;28;20461;-80
2021/08/30 04:01:52;;;;;;;1.70;1.40;;;16.40;98.20;;;;;;5003029;28;20480;-80
2021/08/30 04:04:22;;;;;;;1.57;0.90;;;16.50;98.20;;;;;;5008500;28;20464;-78
2021/08/30 04:06:49;;;;;;;1.60;1.20;;;16.40;98.20;;;;;;4994301;28;20503;-79
2021/08/30 04:09:19;;;;;;;1.60;1.10;;;16.40;98.20;;;;;;5009681;28;20492;-80
2021/08/30 04:11:47;;;;;;;1.53;1.00;;;16.40;98.20;;;;;;5003954;28;20662;-79
2021/08/30 04:14:15;;;;;;;1.60;1.00;;;16.40;98.20;;;;;;5010334;28;20481;-80
2021/08/30 04:16:42;;;;;;;1.60;0.90;;;16.40;98.20;;;;;;4987799;28;20484;-80
2021/08/30 04:19:10;;;;;;;1.60;1.10;;;16.40;98.20;;;;;;4993669;28;20576;-80
2021/08/30 04:21:37;;;;;;;1.60;1.00;;;16.40;98.20;;;;;;4988497;28;20484;-80
2021/08/30 04:24:04;;;;;;;1.57;0.90;;;16.40;98.20;;;;;;4989271;28;20484;-80
2021/08/30 04:26:31;;;;;;;1.60;1.00;;;16.40;98.20;;;;;;4989915;28;20487;-80
2021/08/30 04:28:58;;;;;;;1.60;1.20;;;16.40;98.20;;;;;;5009000;28;20481;-80
2021/08/30 04:31:25;;;;;;;1.60;1.10;;;16.40;98.20;;;;;;4984931;28;21025;-79
2021/08/30 04:33:52;;;;;;;1.70;1.20;;;16.40;98.20;;;;;;4991018;28;20485;-80
2021/08/30 04:36:20;;;;;;;1.60;1.10;;;16.40;98.20;;;;;;4990582;28;20479;-80
2021/08/30 04:38:47;;;;;;;1.60;1.00;;;16.40;98.20;;;;;;5002574;28;20876;-80
2021/08/30 04:41:15;;;;;;;1.60;1.00;;;16.40;98.20;;;;;;5003290;28;20583;-80
2021/08/30 04:43:42;;;;;;;1.60;1.00;;;16.40;98.20;;;;;;5014360;28;20566;-80
2021/08/30 04:46:10;;;;;;;1.60;1.00;;;16.40;98.20;;;;;;4999815;28;20491;-80
2021/08/30 04:48:37;;;;;;;1.60;1.00;;;16.40;98.20;;;;;;5014756;28;20507;-80
2021/08/30 04:51:04;;;;;;;1.60;0.90;;;16.40;98.20;;;;;;4982984;28;20465;-80
2021/08/30 04:53:33;;;;;;;1.53;1.00;;;16.40;98.20;;;;;;5008543;28;20484;-80
2021/08/30 04:56:00;;;;;;;1.70;1.00;;;16.40;98.20;;;;;;4984995;28;20513;-80
2021/08/30 04:58:27;;;;;;;1.60;1.00;;;16.40;98.20;;;;;;5014267;28;20518;-80
2021/08/30 05:00:54;;;;;;;1.57;1.00;;;16.40;98.20;;;;;;4998884;28;20463;-79
2021/08/30 05:03:21;;;;;;;1.60;1.00;;;16.40;98.20;;;;;;5010688;28;20501;-79
2021/08/30 05:05:48;;;;;;;1.53;1.00;;;16.40;98.20;;;;;;5002919;28;20460;-80
2021/08/30 05:08:15;;;;;;;1.60;1.00;;;16.40;98.20;;;;;;5008919;28;20498;-78
2021/08/30 05:10:43;;;;;;;1.60;1.00;;;16.40;98.20;;;;;;5016137;28;20514;-82
2021/08/30 05:13:10;;;;;;;1.60;1.00;;;16.40;98.20;;;;;;5000853;28;20493;-80
2021/08/30 05:15:38;;;;;;;1.60;1.00;;;16.50;98.20;;;;;;5004039;28;20488;-80
2021/08/30 05:18:05;;;;;;;1.60;0.90;;;16.50;98.20;;;;;;4990930;28;20484;-80
2021/08/30 05:20:33;;;;;;;1.60;0.90;;;16.50;98.20;;;;;;4991666;28;20476;-80
2021/08/30 05:23:00;;;;;;;1.60;1.00;;;16.50;98.20;;;;;;5010259;28;20518;-80
2021/08/30 05:25:33;;;;;;;1.60;0.90;;;16.50;98.20;;;;;;5007789;28;20460;-81
2021/08/30 05:28:02;;;;;;;1.50;1.00;;;16.50;98.20;;;;;;5003604;28;20522;-80
2021/08/30 05:30:30;;;;;;;1.60;1.00;;;16.50;98.20;;;;;;4996129;28;20845;-80
2021/08/30 05:32:57;;;;;;;1.60;1.00;;;16.50;98.20;;;;;;4995951;28;20499;-80
2021/08/30 05:35:24;;;;;;;1.60;1.00;;;16.60;98.20;;;;;;4994155;28;20697;-80
2021/08/30 05:37:55;;;;;;;1.57;0.90;;;16.60;98.20;;;;;;5003432;28;20551;-79
2021/08/30 05:40:22;;;;;;;1.57;1.00;;;16.60;98.20;;;;;;4992940;28;20511;-80
2021/08/30 05:42:54;;;;;;;1.60;0.97;;;16.60;98.20;;;;;;4991904;28;20925;-79
2021/08/30 05:45:22;;;;;;;1.57;1.00;;;16.60;98.20;;;;;;4998162;28;20505;-81
2021/08/30 05:48:53;;;;;;;1.60;1.00;;;16.60;98.20;;;;;;4999622;28;20488;-80
2021/08/30 05:53:52;;;;;;;1.60;1.00;;;16.70;98.20;;;;;;4989383;28;20564;-77
2021/08/30 05:56:27;;;;;;;1.57;1.00;;;16.70;98.20;;;;;;4956799;28;20596;-79
2021/08/30 05:58:55;;;;;;;1.60;1.00;;;16.70;98.20;;;;;;4987023;28;21079;-79
2021/08/30 06:01:28;;;;;;;1.60;1.00;;;16.80;98.20;;;;;;4965945;28;20476;-79
2021/08/30 06:03:55;;;;;;;1.60;0.90;;;16.80;98.20;;;;;;4996158;28;20587;-79
2021/08/30 06:06:28;;;;;;;1.53;1.00;;;16.80;98.20;;;;;;4981580;28;20601;-79
2021/08/30 06:08:56;;;;;;;1.60;1.00;;;16.80;98.20;;;;;;4982744;28;20493;-79
2021/08/30 06:11:50;;;;;;;;;;;;;;;;;;;;;
2021/08/30 06:14:17;;;;;;;1.60;1.00;;;16.90;98.20;;;;;;4972874;28;20603;-80
2021/08/30 06:16:46;;;;;;;1.60;1.00;;;16.90;98.20;;;;;;4965516;28;20496;-79
2021/08/30 06:19:13;;;;;;;1.57;0.90;;;16.90;98.20;;;;;;4985884;28;20565;-80
2021/08/30 06:21:40;;;;;;;1.60;0.90;;;16.90;98.20;;;;;;4979851;28;20571;-80
2021/08/30 06:24:09;;;;;;;1.60;0.97;;;16.90;98.20;;;;;;4983245;28;20482;-81
2021/08/30 06:26:37;;;;;;;1.60;0.97;;;16.90;98.20;;;;;;4978446;28;20693;-81
2021/08/30 06:29:04;;;;;;;1.60;1.00;;;16.90;98.20;;;;;;4988300;28;20500;-80
2021/08/30 06:31:31;;;;;;;1.60;1.00;;;16.90;98.20;;;;;;4984571;28;20483;-79
2021/08/30 06:34:00;;;;;;;1.60;1.00;;;17.00;98.20;;;;;;4973703;28;20537;-78
2021/08/30 06:36:27;;;;;;;1.60;1.00;;;17.00;98.20;;;;;;4971504;28;21055;-78
2021/08/30 06:38:54;;;;;;;1.60;1.00;;;17.00;98.20;;;;;;4986864;28;20635;-81
2021/08/30 06:41:22;;;;;;;1.60;1.00;;;17.00;98.20;;;;;;4975876;28;20511;-79
2021/08/30 06:43:50;;;;;;;1.70;1.30;;;17.10;98.20;;;;;;4999023;28;20552;-79
2021/08/30 06:46:17;;;;;;;1.63;1.07;;;17.10;98.20;;;;;;4967846;28;20489;-81
2021/08/30 06:48:45;;;;;;;1.60;1.00;;;17.10;98.20;;;;;;4997028;28;20517;-82
2021/08/30 06:51:15;;;;;;;1.97;1.77;;;17.10;98.20;;;;;;4984921;28;20483;-81
2021/08/30 06:53:42;;;;;;;1.60;1.00;;;17.10;98.20;;;;;;4994947;28;20924;-81
2021/08/30 06:56:09;;;;;;;1.60;1.00;;;17.00;98.20;;;;;;4965484;28;20488;-81
2021/08/30 06:58:36;;;;;;;1.60;0.90;;;17.00;98.20;;;;;;5001267;28;20504;-81
2021/08/30 07:01:03;;;;;;;1.60;1.00;;;17.00;98.20;;;;;;4969049;28;20547;-80
2021/08/30 07:03:30;;;;;;;1.60;1.00;;;17.10;98.20;;;;;;4994630;28;20551;-80
2021/08/30 07:05:57;;;;;;;1.60;0.90;;;17.10;98.20;;;;;;4973805;28;20497;-81
2021/08/30 07:08:25;;;;;;;1.50;0.90;;;17.10;98.20;;;;;;4990556;28;20922;-80
2021/08/30 07:10:52;;;;;;;1.60;0.90;;;17.10;98.20;;;;;;4980364;28;20466;-81
2021/08/30 07:13:19;;;;;;;2.03;1.40;;;17.10;98.20;;;;;;4999861;28;20595;-82
2021/08/30 07:15:47;;;;;;;1.60;0.97;;;17.20;98.20;;;;;;4978124;28;20497;-80
2021/08/30 07:18:14;;;;;;;1.57;0.90;;;17.20;98.20;;;;;;4964391;28;20516;-79
2021/08/30 07:20:41;;;;;;;1.60;1.00;;;17.30;98.20;;;;;;4989917;28;20836;-82
2021/08/30 07:23:09;;;;;;;1.70;1.30;;;17.30;98.20;;;;;;4979654;28;20509;-80
2021/08/30 07:25:37;;;;;;;1.60;1.00;;;17.30;98.20;;;;;;4982661;28;20835;-82
2021/08/30 07:28:05;;;;;;;1.60;1.00;;;17.30;98.20;;;;;;4985956;28;20864;-80
2021/08/30 07:30:31;;;;;;;1.60;1.00;;;17.40;98.20;;;;;;4975891;28;20577;-82
2021/08/30 07:32:58;;;;;;;1.60;0.90;;;17.40;98.20;;;;;;4981389;28;20499;-80
2021/08/30 07:35:25;;;;;;;1.60;0.90;;;17.40;98.20;;;;;;4980324;28;20531;-83
2021/08/30 07:37:52;;;;;;;1.60;1.00;;;17.50;98.20;;;;;;4980520;28;20492;-80
2021/08/30 07:40:19;;;;;;;1.60;1.00;;;17.50;98.20;;;;;;4981987;28;20555;-80
2021/08/30 07:42:48;;;;;;;1.60;1.00;;;17.60;98.20;;;;;;4984614;28;20492;-81
2021/08/30 07:45:15;;;;;;;1.60;1.00;;;17.70;98.20;;;;;;4981548;28;20511;-80
2021/08/30 07:47:42;;;;;;;1.60;1.00;;;17.70;98.20;;;;;;4986820;28;20515;-83
2021/08/30 07:50:11;;;;;;;1.60;1.00;;;17.80;98.20;;;;;;4978099;28;20490;-80
2021/08/30 07:52:38;;;;;;;1.80;1.30;;;17.90;98.20;;;;;;4983462;28;20783;-80
2021/08/30 07:55:06;;;;;;;1.60;1.00;;;17.90;98.20;;;;;;4982196;28;20833;-80
2021/08/30 07:57:33;;;;;;;1.60;1.00;;;17.90;98.20;;;;;;4981491;28;20498;-80
2021/08/30 08:00:02;;;;;;;1.60;1.00;;;17.90;98.20;;;;;;4976101;28;20454;-81
2021/08/30 08:02:28;;;;;;;1.70;1.33;;;18.00;98.20;;;;;;4981047;28;21094;-81
2021/08/30 08:04:55;;;;;;;1.60;0.90;;;18.00;98.20;;;;;;4979346;28;20556;-79
2021/08/30 08:07:22;;;;;;;1.60;1.00;;;18.00;98.20;;;;;;4987008;28;20930;-80
2021/08/30 08:09:49;;;;;;;1.60;1.10;;;18.00;98.20;;;;;;4976744;28;20609;-82
2021/08/30 08:12:16;;;;;;;1.60;1.00;;;18.00;98.20;;;;;;4982052;28;20528;-81
2021/08/30 08:14:43;;;;;;;1.60;0.90;;;18.00;98.20;;;;;;4988518;28;21025;-81
2021/08/30 08:17:11;;;;;;;2.00;1.67;;;18.00;98.20;;;;;;4973889;28;20575;-81
2021/08/30 08:19:38;;;;;;;1.60;0.90;;;18.10;98.20;;;;;;4982715;28;20538;-82
2021/08/30 08:22:05;;;;;;;1.60;1.00;;;18.20;98.20;;;;;;4978326;28;20522;-81
2021/08/30 08:24:32;;;;;;;1.60;1.00;;;18.30;98.20;;;;;;4981773;28;21047;-81
2021/08/30 08:27:00;;;;;;;1.60;1.10;;;18.40;98.20;;;;;;4970232;28;20591;-84
2021/08/30 08:29:27;;;;;;;1.63;1.00;;;18.50;98.20;;;;;;4975688;28;20490;-81
2021/08/30 08:31:54;;;;;;;1.60;0.90;;;18.60;98.20;;;;;;4971120;28;20576;-82
2021/08/30 08:34:22;;;;;;;1.60;1.00;;;18.60;98.20;;;;;;4980989;28;20468;-80
2021/08/30 08:36:49;;;;;;;1.60;1.00;;;18.60;98.20;;;;;;4969129;28;20477;-81
2021/08/30 08:39:16;;;;;;;1.60;0.90;;;18.60;98.20;;;;;;4986416;28;20486;-81
2021/08/30 08:41:43;;;;;;;1.60;1.00;;;18.60;98.20;;;;;;4970252;28;20567;-80
2021/08/30 08:44:10;;;;;;;1.60;1.00;;;18.70;98.20;;;;;;4980151;28;20850;-81
2021/08/30 08:46:38;;;;;;;1.60;1.00;;;18.70;98.20;;;;;;4967648;28;20543;-83
2021/08/30 08:49:06;;;;;;;1.60;0.90;;;18.80;98.20;;;;;;4991963;28;20855;-80
2021/08/30 08:51:36;;;;;;;1.60;1.00;;;18.80;98.20;;;;;;4980905;28;20492;-83
2021/08/30 08:54:05;;;;;;;1.60;0.97;;;18.70;98.20;;;;;;4991693;28;20495;-82
2021/08/30 08:56:32;;;;;;;1.60;1.10;;;18.70;98.20;;;;;;4961467;28;20509;-81
2021/08/30 08:58:59;;;;;;;1.60;1.00;;;18.70;98.20;;;;;;4986719;28;20552;-83
2021/08/30 09:01:30;;;;;;;1.60;1.00;;;18.60;98.20;;;;;;4970216;28;20499;-81
2021/08/30 09:03:58;;;;;;;1.57;0.90;;;18.50;98.20;;;;;;4974334;28;20545;-81
2021/08/30 09:06:28;;;;;;;1.60;1.10;;;18.50;98.20;;;;;;4964291;28;20497;-79
2021/08/30 09:09:00;;;;;;;1.63;1.20;;;18.40;98.20;;;;;;4964168;28;20503;-79
2021/08/30 09:11:35;;;;;;;1.60;0.90;;;18.30;98.20;;;;;;4953419;28;20489;-79
2021/08/30 09:14:02;;;;;;;1.57;0.90;;;18.30;98.20;;;;;;4997514;28;20490;-79
2021/08/30 09:16:29;;;;;;;1.60;0.90;;;18.20;98.20;;;;;;4969167;28;20504;-80
2021/08/30 09:19:04;;;;;;;1.60;0.97;;;18.20;98.20;;;;;;4983511;28;20494;-80
2021/08/30 09:21:31;;;;;;;1.60;0.93;;;18.10;98.20;;;;;;4967756;28;20481;-79
2021/08/30 09:24:09;;;;;;;1.60;0.90;;;18.10;98.20;;;;;;4961853;28;20518;-79
2021/08/30 09:26:43;;;;;;;1.60;0.90;;;18.20;98.20;;;;;;4958234;28;20548;-79
2021/08/30 09:29:15;;;;;;;1.60;1.00;;;18.20;98.20;;;;;;4981712;28;20478;-82
2021/08/30 09:31:42;;;;;;;1.60;0.97;;;18.30;98.20;;;;;;4990240;28;20556;-82
2021/08/30 09:34:13;;;;;;;1.60;0.90;;;18.40;98.20;;;;;;4985502;28;20493;-83
2021/08/30 09:36:43;;;;;;;1.60;0.90;;;18.50;98.20;;;;;;4971596;28;20497;-81
2021/08/30 09:39:12;;;;;;;1.60;0.97;;;18.60;98.20;;;;;;4992942;28;20895;-79
2021/08/30 09:41:43;;;;;;;1.60;0.90;;;18.70;98.20;;;;;;4975943;28;20484;-78
2021/08/30 09:44:10;;;;;;;1.60;1.00;;;18.70;98.20;;;;;;4984944;28;20849;-80
2021/08/30 09:46:37;;;;;;;1.60;0.90;;;18.80;98.20;;;;;;4981334;28;20476;-78
2021/08/30 09:49:11;;;;;;;1.63;1.10;;;18.80;98.20;;;;;;4985033;28;20971;-79
2021/08/30 09:51:38;;;;;;;1.60;1.00;;;18.70;98.20;;;;;;4971092;28;21037;-79
2021/08/30 09:54:05;;;;;;;1.60;0.97;;;18.70;98.20;;;;;;4986237;28;20869;-78
2021/08/30 09:56:37;;;;;;;2.07;1.77;;;18.70;98.20;;;;;;4976630;28;20575;-78
2021/08/30 09:59:05;;;;;;;1.60;0.90;;;18.70;98.20;;;;;;4989776;28;20476;-81
2021/08/30 10:01:37;;;;;;;1.60;0.90;;;18.80;98.20;;;;;;4971206;28;20473;-83
2021/08/30 10:04:06;;;;;;;1.83;1.50;;;18.90;98.20;;;;;;4978013;28;20664;-79
2021/08/30 10:06:34;;;;;;;1.60;0.90;;;19.00;98.20;;;;;;4969525;28;20967;-79
2021/08/30 10:09:03;;;;;;;1.60;0.90;;;19.20;98.20;;;;;;4984699;28;20524;-81
2021/08/30 10:11:30;;;;;;;1.60;1.00;;;19.30;98.20;;;;;;4966832;28;20916;-79
2021/08/30 10:13:58;;;;;;;1.60;1.00;;;19.40;98.20;;;;;;4987216;28;20489;-80
2021/08/30 10:16:28;;;;;;;1.60;0.93;;;19.50;98.20;;;;;;4964937;28;20531;-80
2021/08/30 10:18:55;;;;;;;4.03;1.30;;;19.60;98.20;;;;;;4984798;28;20517;-82
2021/08/30 10:21:22;;;;;;;1.60;0.90;;;19.60;98.20;;;;;;4965922;28;20491;-80
2021/08/30 10:23:49;;;;;;;1.70;1.30;;;19.60;98.20;;;;;;4991722;28;20484;-81
2021/08/30 10:26:17;;;;;;;1.60;0.93;;;19.60;98.20;;;;;;4962151;28;20855;-79
2021/08/30 10:28:46;;;;;;;1.60;1.10;;;19.60;98.20;;;;;;4974622;28;20526;-80
2021/08/30 10:31:23;;;;;;;4.10;3.27;;;19.60;98.20;;;;;;4971985;28;20492;-81
2021/08/30 10:33:51;;;;;;;1.60;1.00;;;19.60;98.20;;;;;;4986962;28;20476;-81
2021/08/30 10:36:23;;;;;;;1.60;1.00;;;19.60;98.20;;;;;;4977929;28;20477;-80
2021/08/30 10:39:18;;;;;;;1.60;0.90;;;19.70;98.20;;;;;;4995341;28;20477;-83
2021/08/30 10:41:47;;;;;;;1.60;1.00;;;19.70;98.20;;;;;;4966579;28;21029;-80
2021/08/30 10:47:23;;;;;;;1.60;1.00;;;19.80;98.20;;;;;;4976615;28;20494;-82
2021/08/30 10:49:59;;;;;;;1.83;1.63;;;19.90;98.20;;;;;;4988373;28;20478;-80
2021/08/30 10:52:37;;;;;;;1.60;0.90;;;19.90;98.20;;;;;;4975414;28;20511;-81
2021/08/30 10:55:21;;;;;;;1.60;0.90;;;19.90;98.20;;;;;;4965624;28;20470;-81
2021/08/30 10:57:52;;;;;;;1.60;1.00;;;20.00;98.20;;;;;;4983500;28;20484;-83
2021/08/30 11:00:31;;;;;;;1.60;1.10;;;20.00;98.20;;;;;;4976227;28;20477;-80
2021/08/30 11:03:02;;;;;;;1.60;0.90;;;20.20;98.20;;;;;;4982212;28;20514;-81
2021/08/30 11:05:33;;;;;;;2.33;2.03;;;20.30;98.20;;;;;;4982706;28;20466;-81
2021/08/30 11:08:00;;;;;;;1.70;1.20;;;20.50;98.20;;;;;;4986860;28;20609;-85
2021/08/30 11:15:57;;;;;;;1.60;0.90;;;20.60;98.20;;;;;;4970197;28;21028;-81
2021/08/30 11:18:26;;;;;;;1.60;1.20;;;20.60;98.20;;;;;;5004666;28;20960;-81
2021/08/30 11:20:57;;;;;;;1.60;1.13;;;20.50;98.20;;;;;;5004733;28;20546;-81
2021/08/30 11:23:31;;;;;;;1.60;0.90;;;20.40;98.20;;;;;;4994767;28;20480;-80
2021/08/30 11:26:06;;;;;;;1.60;0.90;;;20.40;98.20;;;;;;4996082;28;20456;-80
2021/08/30 11:28:37;;;;;;;1.60;0.90;;;20.30;98.20;;;;;;4999154;28;20455;-80
2021/08/30 11:31:08;;;;;;;1.60;0.90;;;20.30;98.20;;;;;;4988714;28;20483;-80
2021/08/30 11:33:39;;;;;;;1.60;0.90;;;20.30;98.20;;;;;;4995906;28;20485;-80
2021/08/30 11:36:15;;;;;;;1.57;0.90;;;20.40;98.20;;;;;;4995694;28;20456;-80
2021/08/30 11:38:53;;;;;;;1.53;0.90;;;20.50;98.20;;;;;;4991539;28;20642;-79
2021/08/30 11:41:22;;;;;;;1.60;0.90;;;20.60;98.20;;;;;;4991555;28;20480;-81
2021/08/30 11:47:08;;;;;;;1.60;0.90;;;20.70;98.20;;;;;;4979205;28;20490;-81
2021/08/30 11:50:13;;;;;;;1.60;1.10;;;20.70;98.20;;;;;;4984605;28;20469;-82
2021/08/30 11:52:48;;;;;;;1.60;1.00;;;20.70;98.20;;;;;;4981385;28;20528;-78
2021/08/30 11:55:30;;;;;;;1.60;0.90;;;20.80;98.20;;;;;;5001717;28;20473;-80
2021/08/30 11:58:04;;;;;;;1.60;0.90;;;20.80;98.20;;;;;;4971220;28;20493;-83
2021/08/30 12:00:37;;;;;;;1.60;1.20;;;20.90;98.20;;;;;;5014286;28;20488;-83
2021/08/30 12:03:20;;;;;;;1.60;0.90;;;21.00;98.20;;;;;;4968782;28;20493;-80
2021/08/30 12:05:54;;;;;;;1.60;0.90;;;21.10;98.20;;;;;;4992995;28;20487;-81
2021/08/30 12:08:33;;;;;;;1.57;0.90;;;21.20;98.20;;;;;;4999516;28;20465;-81
2021/08/30 12:11:12;;;;;;;1.60;1.00;;;21.30;98.20;;;;;;5005978;28;20538;-80
2021/08/30 12:13:55;;;;;;;1.70;1.30;;;21.30;98.20;;;;;;5005017;28;20980;-79
2021/08/30 12:16:27;;;;;;;2.63;1.47;;;21.50;98.20;;;;;;4996734;28;20496;-80
2021/08/30 12:18:56;;;;;;;1.60;1.00;;;21.50;98.20;;;;;;5010701;28;20476;-80
2021/08/30 12:21:36;;;;;;;1.60;0.90;;;21.50;98.20;;;;;;4991204;28;20486;-82
2021/08/30 12:24:22;;;;;;;1.60;0.90;;;21.70;98.20;;;;;;5000219;28;20500;-82
2021/08/30 12:26:57;;;;;;;1.70;1.20;;;21.80;98.20;;;;;;4991514;28;20504;-80
2021/08/30 12:32:24;;;;;;;1.60;0.90;;;22.10;98.20;;;;;;4931816;28;20929;-82
2021/08/30 12:35:01;;;;;;;1.70;1.00;;;22.20;98.20;;;;;;5001153;28;20485;-83
2021/08/30 12:37:35;;;;;;;1.63;1.20;;;22.30;98.20;;;;;;4990276;28;20507;-81
2021/08/30 12:40:22;;;;;;;1.60;0.90;;;22.30;98.00;;;;;;5010734;28;20472;-82
2021/08/30 12:43:04;;;;;;;1.60;0.90;;;22.30;98.20;;;;;;4985781;28;20795;-80
2021/08/30 12:45:42;;;;;;;1.60;0.90;;;22.30;98.20;;;;;;5000421;28;20898;-82
2021/08/30 12:48:40;;;;;;;1.57;0.90;;;22.20;97.40;;;;;;4996168;28;20503;-81
2021/08/30 12:51:14;;;;;;;1.53;0.90;;;22.20;98.20;;;;;;4996721;28;20585;-82
2021/08/30 12:53:46;;;;;;;1.60;1.00;;;22.20;97.20;;;;;;5006060;28;20491;-80
2021/08/30 12:59:07;;;;;;;1.53;0.90;;;22.10;96.80;;;;;;4994909;28;20475;-81
2021/08/30 13:02:03;;;;;;;1.60;0.90;;;22.10;97.20;;;;;;5005169;28;20956;-80
2021/08/30 13:04:49;;;;;;;1.60;1.13;;;22.10;97.20;;;;;;4994973;28;20461;-80
2021/08/30 13:08:00;;;;;;;1.57;0.90;;;22.10;96.90;;;;;;4995291;28;20477;-81
2021/08/30 13:10:54;;;;;;;1.57;0.90;;;22.10;98.20;;;;;;5005879;28;21326;-80
2021/08/30 13:13:49;;;;;;;;;;;;;;;;;;;;;
2021/08/30 13:16:23;;;;;;;1.57;0.90;;;22.30;97.50;;;;;;4985425;28;20659;-80
2021/08/30 13:18:56;;;;;;;1.60;1.10;;;22.40;97.20;;;;;;4961032;29;20595;-80
2021/08/30 13:21:31;;;;;;;1.60;1.20;;;22.40;97.10;;;;;;4969193;28;20545;-81
2021/08/30 13:24:39;;;;;;;1.50;0.90;;;22.50;96.40;;;;;;5006136;28;20486;-80
2021/08/30 13:27:29;;;;;;;1.60;1.00;;;22.50;95.30;;;;;;4983309;28;20484;-80